EDT,Max TemperatureF,Mean TemperatureF,Min TemperatureF,Max Dew PointF,MeanDew PointF,Min DewpointF,Max Humidity, Mean Humidity, Min Humidity, Max Sea Level PressureIn, Mean Sea Level PressureIn, Min Sea Level PressureIn, Max VisibilityMiles, Mean VisibilityMiles, Min VisibilityMiles, Max Wind SpeedMPH, Mean Wind SpeedMPH, Max Gust SpeedMPH,PrecipitationIn, CloudCover, Events, WindDirDegrees
2012-3-1,73,59,44,55,38,23,93,55,17,29.92,29.85,29.79,10,10,10,17,8,23,T,1,,336
2012-3-2,63,51,39,58,50,32,93,79,64,29.93,29.80,29.67,10,9,2,20,5,26,0.30,6,Rain-Thunderstorm,168
2012-3-3,61,52,43,57,37,17,100,64,27,29.79,29.72,29.57,10,9,4,29,11,38,0.43,5,Rain,351
2012-3-4,44,37,29,24,19,14,69,51,32,30.00,29.85,29.71,10,10,9,28,12,40,T,2,,329
2012-3-5,45,37,29,28,19,11,78,53,28,30.47,30.16,29.86,10,10,10,30,12,44,T,3,Rain,335
2012-3-6,55,40,24,25,20,16,81,53,24,30.60,30.54,30.48,10,10,10,17,5,22,0.00,0,,152
2012-3-7,60,47,33,45,36,23,77,64,51,30.60,30.52,30.41,10,10,10,20,6,26,0.00,7,,169
2012-3-8,65,58,51,54,49,45,89,71,52,30.41,30.28,30.09,10,9,2,21,8,28,0.43,7,Rain,182
2012-3-9,55,48,41,52,39,22,96,63,30,30.34,30.21,30.09,10,10,4,26,11,37,0.16,4,Rain,351
2012-3-10,60,48,35,27,21,16,64,43,21,30.51,30.41,30.34,10,10,10,16,6,31,0.00,0,,350
2012-3-11,62,45,28,36,29,25,85,55,25,30.55,30.47,30.40,10,10,10,13,4,18,0.00,1,,145
2012-3-12,62,56,49,54,48,36,93,75,56,30.40,30.33,30.26,10,10,4,20,7,24,0.03,8,Rain,174
2012-3-13,74,63,51,55,53,49,100,72,44,30.28,30.22,30.12,10,7,0,13,2,16,0.02,6,Fog-Rain,221
2012-3-14,77,60,42,49,45,40,100,64,27,30.28,30.23,30.17,10,10,9,10,2,15,0.00,1,,265
2012-3-15,77,61,44,56,48,42,100,68,35,30.30,30.25,30.18,10,10,8,20,2,26,0.03,3,Rain-Thunderstorm,204
2012-3-16,77,64,50,58,52,49,96,67,38,30.27,30.21,30.13,10,5,0,20,3,29,0.24,4,Fog-Thunderstorm,323
2012-3-17,74,62,50,55,52,48,100,71,41,30.29,30.23,30.17,10,6,1,13,3,17,T,6,Rain,317
2012-3-18,74,62,50,56,53,48,100,75,49,30.37,30.27,30.19,10,8,1,12,3,14,0.21,4,Rain,292
2012-3-19,80,65,50,57,52,49,100,68,35,30.29,30.21,30.10,10,5,0,12,2,16,0.00,2,Fog,179
2012-3-20,80,66,51,57,53,49,100,69,37,30.22,30.17,30.10,10,9,2,21,3,26,0.11,4,Rain-Thunderstorm,119
2012-3-21,74,64,53,57,54,51,100,75,49,30.27,30.23,30.17,10,7,0,15,4,20,0.00,3,Fog,164
2012-3-22,72,63,54,59,56,51,93,80,66,30.30,30.22,30.15,10,10,2,15,3,18,0.01,5,,159
2012-3-23,70,63,55,61,58,54,100,87,73,30.18,30.08,29.95,10,8,1,17,5,22,0.46,6,Rain,166
2012-3-24,70,60,50,58,51,40,93,66,39,29.98,29.84,29.72,10,10,10,23,9,28,0.02,5,Rain-Thunderstorm,190
2012-3-25,58,54,49,48,46,45,86,76,66,29.90,29.83,29.75,10,10,10,26,12,37,0.01,7,Rain,351
2012-3-26,71,63,54,48,45,41,77,56,34,30.09,29.99,29.90,10,10,10,28,13,32,0.00,0,,347
2012-3-27,68,57,45,43,37,29,80,55,29,30.28,30.20,30.11,10,10,10,14,7,18,0.00,0,,145
2012-3-28,78,61,43,49,44,38,89,61,32,30.21,30.08,29.95,10,10,10,17,5,23,0.00,0,,265
2012-3-29,77,65,52,53,48,45,83,60,36,29.96,29.93,29.89,10,10,10,22,6,30,0.00,1,,340
2012-3-30,76,63,49,57,50,38,93,61,29,30.01,29.94,29.86,10,9,5,20,4,26,0.16,4,Rain,165
2012-3-31,74,63,52,58,53,38,100,66,31,29.94,29.85,29.75,10,7,2,16,6,20,0.11,5,Rain,339